createdAt,value
2017-07-09T00:01:48.708Z,9.47
2017-07-09T00:04:16.950Z,12.20
2017-07-09T00:06:44.425Z,12.53
2017-07-09T00:09:12.694Z,12.80
2017-07-09T00:11:40.174Z,13.77
2017-07-09T00:14:07.650Z,14.10
2017-07-09T00:16:35.155Z,12.13
2017-07-09T00:19:02.677Z,9.80
2017-07-09T00:21:30.456Z,11.60
2017-07-09T00:23:58.009Z,11.00
2017-07-09T00:26:25.480Z,12.97
2017-07-09T00:28:52.970Z,12.93
2017-07-09T00:31:21.241Z,11.17
2017-07-09T00:33:49.485Z,14.70
2017-07-09T00:36:16.958Z,13.63
2017-07-09T00:38:44.535Z,12.63
2017-07-09T00:41:12.781Z,10.93
2017-07-09T00:43:40.253Z,9.87
2017-07-09T00:46:07.754Z,10.27
2017-07-09T00:48:35.322Z,10.30
2017-07-09T00:51:02.838Z,10.90
2017-07-09T00:53:31.374Z,13.40
2017-07-09T00:55:58.850Z,13.83
2017-07-09T00:58:26.588Z,13.20
2017-07-09T01:00:54.086Z,14.20
2017-07-09T01:03:21.561Z,12.10
2017-07-09T01:05:49.805Z,14.87
2017-07-09T01:08:17.302Z,13.13
2017-07-09T01:10:45.097Z,13.80
2017-07-09T01:13:12.577Z,13.80
2017-07-09T01:15:40.069Z,11.97
2017-07-09T01:18:08.593Z,13.10
2017-07-09T01:20:36.137Z,13.97
2017-07-09T01:23:03.725Z,11.60
2017-07-09T01:25:31.197Z,12.73
2017-07-09T01:27:58.672Z,11.67
2017-07-09T01:30:26.942Z,11.13
2017-07-09T01:32:54.430Z,10.60
2017-07-09T01:35:21.906Z,11.40
2017-07-09T01:37:49.469Z,11.77
2017-07-09T01:40:16.941Z,11.40
2017-07-09T01:42:44.417Z,11.47
2017-07-09T01:45:11.908Z,11.50
2017-07-09T01:47:40.149Z,11.03
2017-07-09T01:50:07.625Z,11.60
2017-07-09T01:52:35.893Z,11.40
2017-07-09T01:55:03.369Z,12.00
2017-07-09T01:57:31.615Z,11.70
2017-07-09T01:59:59.116Z,12.63
2017-07-09T02:02:26.590Z,11.67
2017-07-09T02:04:54.066Z,12.90
2017-07-09T02:07:21.562Z,11.67
2017-07-09T02:09:49.813Z,11.93
2017-07-09T02:12:17.289Z,11.97
2017-07-09T02:14:44.791Z,11.53
2017-07-09T02:17:12.274Z,11.10
2017-07-09T02:19:39.867Z,10.50
2017-07-09T02:22:08.705Z,11.70
2017-07-09T02:24:36.181Z,10.80
2017-07-09T02:27:03.654Z,13.00
2017-07-09T02:29:31.149Z,13.27
2017-07-09T02:31:58.629Z,11.33
2017-07-09T02:34:26.101Z,12.10
2017-07-09T02:36:53.706Z,11.10
2017-07-09T02:39:21.949Z,10.30
2017-07-09T02:41:49.429Z,10.13
2017-07-09T02:44:16.925Z,11.50
2017-07-09T02:46:44.399Z,11.30
2017-07-09T02:49:12.161Z,11.60
2017-07-09T02:51:39.669Z,11.90
2017-07-09T02:54:07.950Z,12.00
2017-07-09T02:56:36.200Z,12.50
2017-07-09T02:59:03.729Z,11.90
2017-07-09T03:01:31.210Z,11.53
2017-07-09T03:03:58.689Z,11.80
2017-07-09T03:06:26.186Z,10.77
2017-07-09T03:08:53.663Z,11.23
2017-07-09T03:11:21.146Z,11.47
2017-07-09T03:13:48.637Z,10.97
2017-07-09T03:16:16.128Z,11.43
2017-07-09T03:18:43.614Z,11.70
2017-07-09T03:21:11.110Z,11.67
2017-07-09T03:23:38.589Z,10.50
2017-07-09T03:26:06.065Z,13.70
2017-07-09T03:28:33.569Z,10.20
2017-07-09T03:31:01.809Z,10.87
2017-07-09T03:33:29.281Z,8.70
2017-07-09T03:35:56.778Z,10.73
2017-07-09T03:38:24.253Z,10.37
2017-07-09T03:40:51.731Z,12.70
2017-07-09T03:43:19.232Z,11.27
2017-07-09T03:45:47.476Z,10.63
2017-07-09T03:48:14.954Z,12.00
2017-07-09T03:50:43.217Z,11.13
2017-07-09T03:53:10.694Z,11.27
2017-07-09T03:55:38.981Z,13.40
2017-07-09T03:58:06.481Z,12.23
2017-07-09T04:00:33.958Z,10.50
2017-07-09T04:03:01.438Z,10.60
2017-07-09T04:05:29.739Z,11.10
2017-07-09T04:07:57.252Z,11.50
2017-07-09T04:10:24.730Z,11.13
2017-07-09T04:12:52.989Z,9.13
2017-07-09T04:15:20.828Z,10.93
2017-07-09T04:17:48.338Z,10.13
2017-07-09T04:20:16.597Z,9.83
2017-07-09T04:22:44.069Z,9.93
2017-07-09T04:25:12.311Z,9.30
2017-07-09T04:27:39.808Z,9.30
2017-07-09T04:30:07.288Z,11.63
2017-07-09T04:32:34.766Z,10.50
2017-07-09T04:35:02.258Z,8.93
2017-07-09T04:37:30.505Z,11.10
2017-07-09T04:39:57.981Z,9.80
2017-07-09T04:42:25.866Z,10.53
2017-07-09T04:44:54.142Z,11.23
2017-07-09T04:47:22.382Z,9.40
2017-07-09T04:49:49.874Z,8.87
2017-07-09T04:52:18.125Z,8.77
2017-07-09T04:54:45.609Z,11.30
2017-07-09T04:57:13.870Z,8.50
2017-07-09T04:59:41.345Z,7.80
2017-07-09T05:02:09.586Z,9.27
2017-07-09T05:04:37.078Z,8.27
2017-07-09T05:07:04.565Z,8.37
2017-07-09T05:09:32.037Z,8.43
2017-07-09T05:11:59.544Z,6.20
2017-07-09T05:14:27.786Z,7.93
2017-07-09T05:16:55.258Z,6.70
2017-07-09T05:19:22.762Z,8.67
2017-07-09T05:21:50.242Z,9.60
2017-07-09T05:24:17.717Z,7.70
2017-07-09T05:26:45.210Z,8.27
2017-07-09T05:29:13.446Z,8.60
2017-07-09T05:31:40.921Z,9.00
2017-07-09T05:34:08.416Z,8.10
2017-07-09T05:36:35.885Z,7.20
2017-07-09T05:39:03.353Z,8.00
2017-07-09T05:41:30.845Z,8.40
2017-07-09T05:43:58.318Z,7.63
2017-07-09T05:46:26.557Z,7.30
2017-07-09T05:48:54.050Z,7.77
2017-07-09T05:51:22.287Z,7.93
2017-07-09T05:53:49.756Z,5.77
2017-07-09T05:56:17.334Z,7.27
2017-07-09T05:58:45.569Z,6.87
2017-07-09T06:01:13.046Z,6.50
2017-07-09T06:03:40.542Z,6.70
2017-07-09T06:06:08.013Z,5.80
2017-07-09T06:08:35.489Z,7.07
2017-07-09T06:11:02.985Z,7.20
2017-07-09T06:13:30.452Z,5.20
2017-07-09T06:15:58.689Z,5.87
2017-07-09T06:18:26.176Z,5.63
2017-07-09T06:20:54.545Z,5.30
2017-07-09T06:23:22.017Z,5.93
2017-07-09T06:25:50.276Z,5.07
2017-07-09T06:28:17.746Z,5.40
2017-07-09T06:30:46.038Z,5.10
2017-07-09T06:33:14.297Z,4.93
2017-07-09T06:35:41.765Z,5.57
2017-07-09T06:38:10.036Z,5.70
2017-07-09T06:40:38.309Z,5.57
2017-07-09T06:43:05.802Z,6.30
2017-07-09T06:45:33.576Z,5.90
2017-07-09T06:48:01.081Z,5.63
2017-07-09T06:50:28.549Z,5.67
2017-07-09T06:52:56.786Z,5.60
2017-07-09T06:55:24.278Z,4.33
2017-07-09T06:57:52.518Z,5.87
2017-07-09T07:00:19.989Z,6.30
2017-07-09T07:02:47.483Z,6.27
2017-07-09T07:05:14.958Z,5.50
2017-07-09T07:07:42.445Z,5.17
2017-07-09T07:10:10.153Z,5.20
2017-07-09T07:12:38.393Z,5.00
2017-07-09T07:15:05.865Z,4.93
2017-07-09T07:17:33.352Z,4.57
2017-07-09T07:20:00.825Z,4.57
2017-07-09T07:22:28.599Z,4.93
2017-07-09T07:24:56.090Z,5.73
2017-07-09T07:27:23.563Z,5.80
2017-07-09T07:29:51.846Z,4.57
2017-07-09T07:32:20.106Z,4.63
2017-07-09T07:34:47.585Z,4.90
2017-07-09T07:37:15.826Z,5.67
2017-07-09T07:39:43.317Z,4.57
2017-07-09T07:42:11.553Z,4.43
2017-07-09T07:44:39.022Z,3.90
2017-07-09T07:47:06.745Z,3.73
2017-07-09T07:49:34.218Z,4.10
2017-07-09T07:52:01.692Z,3.70
2017-07-09T07:54:29.185Z,4.70
2017-07-09T07:56:57.424Z,3.57
2017-07-09T07:59:24.894Z,5.43
2017-07-09T08:01:52.393Z,4.40
2017-07-09T08:04:19.865Z,3.40
2017-07-09T08:06:47.341Z,4.20
2017-07-09T08:09:14.841Z,4.00
2017-07-09T08:11:43.106Z,3.90
2017-07-09T08:14:11.347Z,4.40
2017-07-09T08:16:39.780Z,3.70
2017-07-09T08:19:07.285Z,3.97
2017-07-09T08:21:34.769Z,4.50
2017-07-09T08:24:02.265Z,4.10
2017-07-09T08:26:29.807Z,4.63
2017-07-09T08:28:57.286Z,3.63
2017-07-09T08:31:25.113Z,4.03
2017-07-09T08:33:52.619Z,4.47
2017-07-09T08:36:20.133Z,4.40
2017-07-09T08:38:48.390Z,4.33
2017-07-09T08:41:15.887Z,4.07
2017-07-09T08:43:43.362Z,4.73
2017-07-09T08:46:10.853Z,4.07
2017-07-09T08:48:38.326Z,5.00
2017-07-09T08:51:05.809Z,4.47
2017-07-09T08:53:33.301Z,3.77
2017-07-09T08:56:00.787Z,4.20
2017-07-09T08:58:28.282Z,3.93
2017-07-09T09:00:55.832Z,3.67
2017-07-09T09:03:23.309Z,4.10
2017-07-09T09:05:50.795Z,3.80
2017-07-09T09:08:18.293Z,4.30
2017-07-09T09:10:46.530Z,3.50
2017-07-09T09:13:14.001Z,3.47
2017-07-09T09:15:41.497Z,3.50
2017-07-09T09:18:08.974Z,4.00
2017-07-09T09:20:36.453Z,3.93
2017-07-09T09:23:03.945Z,4.10
2017-07-09T09:25:31.420Z,4.23
2017-07-09T09:27:59.659Z,3.57
2017-07-09T09:30:27.157Z,3.53
2017-07-09T09:32:55.437Z,4.13
2017-07-09T09:35:23.135Z,3.20
2017-07-09T09:37:50.633Z,3.03
2017-07-09T09:40:18.109Z,4.20
2017-07-09T09:42:46.349Z,3.70
2017-07-09T09:45:13.837Z,4.00
2017-07-09T09:47:42.136Z,3.70
2017-07-09T09:50:09.570Z,3.50
2017-07-09T09:52:37.083Z,4.17
2017-07-09T09:55:04.557Z,4.27
2017-07-09T09:57:32.029Z,3.27
2017-07-09T10:00:00.292Z,3.47
2017-07-09T10:02:27.775Z,3.10
2017-07-09T10:04:56.009Z,3.40
2017-07-09T10:07:23.518Z,3.77
2017-07-09T10:09:50.993Z,4.40
2017-07-09T10:12:18.470Z,3.90
2017-07-09T10:14:45.962Z,3.90
2017-07-09T10:17:14.202Z,3.97
2017-07-09T10:19:41.671Z,2.80
2017-07-09T10:22:09.160Z,3.20
2017-07-09T10:24:37.440Z,3.23
2017-07-09T10:27:05.674Z,3.40
2017-07-09T10:29:33.166Z,3.23
2017-07-09T10:32:01.401Z,2.90
2017-07-09T10:34:28.874Z,3.00
2017-07-09T10:36:56.365Z,3.77
2017-07-09T10:39:24.605Z,3.03
2017-07-09T10:41:52.078Z,3.10
2017-07-09T10:44:19.568Z,3.90
2017-07-09T10:46:47.037Z,3.40
2017-07-09T10:49:14.509Z,3.90
2017-07-09T10:51:42.021Z,3.07
2017-07-09T10:54:10.261Z,3.70
2017-07-09T10:56:37.734Z,3.93
2017-07-09T10:59:05.228Z,2.50
2017-07-09T11:01:32.757Z,3.00
2017-07-09T11:04:01.001Z,2.73
2017-07-09T11:06:28.746Z,2.47
2017-07-09T11:08:56.225Z,2.83
2017-07-09T11:11:23.701Z,3.33
2017-07-09T11:13:51.393Z,2.67
2017-07-09T11:16:18.866Z,2.40
2017-07-09T11:18:46.349Z,2.53
2017-07-09T11:21:13.844Z,3.17
2017-07-09T11:23:42.082Z,3.23
2017-07-09T11:26:09.556Z,3.70
2017-07-09T11:28:37.061Z,2.87
2017-07-09T11:31:04.541Z,3.17
2017-07-09T11:33:32.301Z,2.80
2017-07-09T11:36:00.553Z,2.60
2017-07-09T11:38:28.029Z,2.70
2017-07-09T11:40:55.549Z,3.17
2017-07-09T11:43:23.041Z,2.93
2017-07-09T11:45:50.514Z,3.07
2017-07-09T11:48:17.986Z,3.27
2017-07-09T11:50:45.479Z,2.90
2017-07-09T11:53:13.721Z,3.37
2017-07-09T11:55:41.199Z,3.00
2017-07-09T11:58:08.701Z,2.83
2017-07-09T12:00:36.180Z,3.10
2017-07-09T12:03:03.649Z,3.20
2017-07-09T12:05:31.146Z,3.70
2017-07-09T12:07:59.393Z,2.30
2017-07-09T12:10:26.866Z,1.80
2017-07-09T12:12:54.359Z,3.90
2017-07-09T12:15:21.838Z,2.73
2017-07-09T12:17:49.316Z,2.57
2017-07-09T12:20:16.822Z,2.77
2017-07-09T12:22:44.360Z,3.20
2017-07-09T12:25:12.603Z,2.90
2017-07-09T12:27:40.338Z,3.20
2017-07-09T12:30:07.814Z,2.97
2017-07-09T12:32:35.293Z,2.70
2017-07-09T12:35:02.785Z,2.90
2017-07-09T12:37:30.260Z,2.20
2017-07-09T12:39:58.032Z,2.70
2017-07-09T12:42:25.530Z,3.20
2017-07-09T12:44:53.102Z,3.00
2017-07-09T12:47:21.349Z,2.40
2017-07-09T12:49:48.841Z,2.20
2017-07-09T12:52:17.082Z,3.37
2017-07-09T12:54:44.566Z,3.57
2017-07-09T12:57:12.830Z,2.87
2017-07-09T12:59:40.301Z,2.93
2017-07-09T13:02:08.537Z,2.87
2017-07-09T13:04:36.030Z,3.27
2017-07-09T13:07:03.576Z,2.70
2017-07-09T13:09:31.817Z,2.53
2017-07-09T13:11:59.366Z,3.10
2017-07-09T13:14:26.844Z,2.50
2017-07-09T13:16:54.321Z,3.27
2017-07-09T13:19:22.602Z,3.03
2017-07-09T13:21:50.845Z,3.67
2017-07-09T13:24:18.318Z,2.87
2017-07-09T13:26:45.818Z,3.33
2017-07-09T13:29:13.306Z,3.37
2017-07-09T13:31:40.781Z,2.93
2017-07-09T13:34:08.303Z,2.83
2017-07-09T13:36:35.813Z,2.90
2017-07-09T13:39:03.285Z,4.67
2017-07-09T13:41:31.824Z,2.97
2017-07-09T13:43:59.573Z,3.00
2017-07-09T13:46:27.045Z,3.00
2017-07-09T13:48:54.537Z,3.27
2017-07-09T13:51:22.824Z,2.50
2017-07-09T13:53:51.123Z,2.40
2017-07-09T13:56:18.637Z,2.83
2017-07-09T13:58:46.109Z,3.13
2017-07-09T14:01:14.358Z,3.30
2017-07-09T14:03:41.855Z,3.10
2017-07-09T14:06:10.094Z,2.93
2017-07-09T14:08:37.582Z,2.50
2017-07-09T14:11:05.074Z,3.10
2017-07-09T14:13:32.547Z,3.27
2017-07-09T14:16:00.021Z,2.90
2017-07-09T14:18:27.509Z,3.00
2017-07-09T14:20:55.749Z,3.60
2017-07-09T14:23:23.220Z,2.93
2017-07-09T14:25:50.714Z,4.03
2017-07-09T14:28:18.193Z,3.03
2017-07-09T14:30:45.669Z,2.93
2017-07-09T14:33:13.165Z,3.50
2017-07-09T14:35:41.401Z,3.50
2017-07-09T14:38:08.874Z,3.67
2017-07-09T14:40:36.374Z,3.53
2017-07-09T14:43:03.846Z,4.03
2017-07-09T14:45:31.328Z,3.63
2017-07-09T14:47:58.821Z,4.40
2017-07-09T14:50:27.080Z,3.73
2017-07-09T14:52:54.550Z,4.03
2017-07-09T14:55:22.809Z,3.27
2017-07-09T14:57:50.280Z,3.10
2017-07-09T15:00:17.752Z,3.07
2017-07-09T15:02:46.012Z,4.40
2017-07-09T15:05:13.487Z,3.40
2017-07-09T15:07:41.752Z,3.37
2017-07-09T15:10:10.020Z,3.80
2017-07-09T15:12:38.318Z,3.70
2017-07-09T15:15:06.564Z,3.60
2017-07-09T15:17:34.058Z,3.83
2017-07-09T15:20:01.537Z,3.60
2017-07-09T15:22:29.010Z,4.47
2017-07-09T15:24:56.500Z,4.40
2017-07-09T15:27:23.996Z,3.90
2017-07-09T15:29:51.503Z,3.40
2017-07-09T15:32:19.091Z,2.87
2017-07-09T15:34:46.644Z,3.70
2017-07-09T15:37:15.046Z,3.53
2017-07-09T15:39:42.562Z,4.03
2017-07-09T15:42:10.043Z,4.27
2017-07-09T15:44:37.643Z,4.10
2017-07-09T15:47:05.222Z,4.77
2017-07-09T15:49:32.701Z,4.87
2017-07-09T15:52:00.959Z,4.00
2017-07-09T15:54:28.465Z,4.73
2017-07-09T15:56:55.997Z,4.17
2017-07-09T15:59:24.242Z,3.90
2017-07-09T16:01:51.740Z,4.30
2017-07-09T16:04:19.978Z,4.03
2017-07-09T16:06:47.495Z,4.10
2017-07-09T16:09:14.995Z,5.97
2017-07-09T16:11:42.469Z,3.17
2017-07-09T16:14:10.714Z,4.00
2017-07-09T16:16:38.210Z,4.73
2017-07-09T16:19:06.499Z,4.07
2017-07-09T16:21:33.971Z,3.80
2017-07-09T16:24:01.466Z,4.63
2017-07-09T16:26:28.937Z,5.83
2017-07-09T16:28:56.409Z,4.10
2017-07-09T16:31:24.690Z,3.97
2017-07-09T16:33:52.934Z,3.93
2017-07-09T16:36:20.406Z,9.37
2017-07-09T16:38:47.916Z,62.00
2017-07-09T16:41:15.389Z,6.80
2017-07-09T16:43:42.873Z,4.27
2017-07-09T16:46:10.450Z,6.73
2017-07-09T16:48:38.717Z,5.00
2017-07-09T16:51:06.958Z,5.17
2017-07-09T16:53:34.497Z,10.60
2017-07-09T16:56:01.995Z,5.10
2017-07-09T16:58:30.433Z,4.27
2017-07-09T17:00:58.966Z,4.03
2017-07-09T17:03:26.532Z,5.10
2017-07-09T17:05:54.769Z,4.03
2017-07-09T17:08:22.412Z,4.03
2017-07-09T17:10:49.980Z,5.27
2017-07-09T17:13:17.468Z,4.97
2017-07-09T17:15:44.959Z,5.20
2017-07-09T17:18:12.435Z,4.70
2017-07-09T17:20:39.910Z,4.10
2017-07-09T17:23:07.416Z,3.90
2017-07-09T17:25:35.669Z,4.67
2017-07-09T17:28:03.147Z,4.03
2017-07-09T17:30:32.518Z,4.43
2017-07-09T17:33:00.064Z,4.00
2017-07-09T17:35:27.536Z,4.50
2017-07-09T17:37:55.877Z,4.30
2017-07-09T17:40:23.353Z,4.90
2017-07-09T17:42:50.861Z,3.90
2017-07-09T17:45:18.889Z,6.17
2017-07-09T17:47:46.545Z,4.27
2017-07-09T17:50:14.022Z,5.10
2017-07-09T17:52:41.533Z,4.00
2017-07-09T17:55:09.006Z,3.90
2017-07-09T17:57:36.481Z,4.37
2017-07-09T18:00:03.972Z,4.70
2017-07-09T18:02:32.215Z,3.87
2017-07-09T18:04:59.707Z,4.87
2017-07-09T18:07:28.018Z,4.10
2017-07-09T18:09:55.493Z,3.70
2017-07-09T18:12:22.971Z,4.47
2017-07-09T18:14:50.752Z,3.60
2017-07-09T18:17:18.242Z,4.10
2017-07-09T18:19:45.723Z,3.80
2017-07-09T18:22:13.233Z,3.47
2017-07-09T18:24:41.473Z,3.53
2017-07-09T18:27:09.001Z,4.50
2017-07-09T18:29:36.493Z,4.03
2017-07-09T18:32:04.127Z,4.37
2017-07-09T18:34:31.688Z,4.20
2017-07-09T18:36:59.252Z,4.30
2017-07-09T18:39:26.728Z,4.27
2017-07-09T18:41:54.197Z,4.47
2017-07-09T18:44:21.773Z,4.30
2017-07-09T18:46:50.017Z,4.50
2017-07-09T18:49:17.493Z,4.33
2017-07-09T18:51:45.060Z,4.00
2017-07-09T18:54:13.297Z,4.50
2017-07-09T18:56:40.773Z,4.20
2017-07-09T18:59:08.269Z,3.63
2017-07-09T19:01:35.744Z,4.83
2017-07-09T19:04:03.260Z,5.40
2017-07-09T19:06:31.521Z,4.60
2017-07-09T19:08:58.993Z,4.43
2017-07-09T19:11:27.270Z,5.10
2017-07-09T19:13:55.529Z,4.30
2017-07-09T19:16:23.106Z,3.90
2017-07-09T19:18:51.353Z,4.40
2017-07-09T19:21:18.858Z,4.33
2017-07-09T19:23:46.330Z,4.90
2017-07-09T19:26:13.825Z,4.70
2017-07-09T19:28:41.318Z,5.20
2017-07-09T19:31:09.556Z,4.97
2017-07-09T19:33:37.025Z,4.53
2017-07-09T19:36:04.525Z,5.50
2017-07-09T19:38:32.146Z,4.33
2017-07-09T19:40:59.698Z,5.30
2017-07-09T19:43:27.591Z,4.87
2017-07-09T19:45:55.887Z,5.10
2017-07-09T19:48:23.370Z,4.80
2017-07-09T19:50:50.865Z,4.73
2017-07-09T19:53:18.340Z,5.00
2017-07-09T19:55:46.573Z,5.60
2017-07-09T19:58:14.317Z,4.70
2017-07-09T20:00:41.790Z,4.77
2017-07-09T20:03:09.326Z,4.20
2017-07-09T20:05:36.818Z,5.37
2017-07-09T20:08:04.289Z,5.00
2017-07-09T20:10:31.757Z,4.80
2017-07-09T20:13:00.017Z,4.87
2017-07-09T20:15:27.589Z,5.97
2017-07-09T20:17:56.125Z,4.00
2017-07-09T20:20:23.619Z,4.03
2017-07-09T20:22:51.861Z,4.57
2017-07-09T20:25:19.360Z,4.53
2017-07-09T20:27:47.621Z,5.33
2017-07-09T20:30:15.100Z,4.30
2017-07-09T20:32:43.337Z,4.17
2017-07-09T20:35:10.828Z,4.30
2017-07-09T20:37:39.065Z,4.00
2017-07-09T20:40:06.538Z,3.90
2017-07-09T20:42:34.114Z,5.03
2017-07-09T20:45:02.356Z,5.40
2017-07-09T20:47:30.098Z,4.13
2017-07-09T20:49:57.598Z,4.13
2017-07-09T20:52:25.069Z,4.20
2017-07-09T20:54:53.313Z,5.00
2017-07-09T20:57:20.806Z,5.23
2017-07-09T20:59:49.049Z,4.47
2017-07-09T21:02:16.518Z,4.40
2017-07-09T21:04:44.017Z,4.37
2017-07-09T21:07:11.549Z,4.50
2017-07-09T21:09:39.784Z,5.23
2017-07-09T21:12:07.282Z,5.03
2017-07-09T21:14:35.527Z,4.77
2017-07-09T21:17:02.998Z,4.67
2017-07-09T21:19:30.718Z,4.10
2017-07-09T21:21:58.202Z,4.87
2017-07-09T21:24:25.675Z,5.13
2017-07-09T21:26:53.174Z,5.20
2017-07-09T21:29:20.648Z,5.47
2017-07-09T21:31:48.119Z,5.77
2017-07-09T21:34:15.613Z,5.93
2017-07-09T21:36:43.860Z,5.17
2017-07-09T21:39:12.125Z,6.40
2017-07-09T21:41:39.621Z,6.47
2017-07-09T21:44:07.858Z,5.80
2017-07-09T21:46:35.338Z,6.10
2017-07-09T21:49:02.829Z,7.30
2017-07-09T21:51:30.301Z,7.30
2017-07-09T21:53:57.769Z,8.83
2017-07-09T21:56:25.273Z,7.70
2017-07-09T21:58:52.847Z,6.40
2017-07-09T22:01:21.089Z,7.53
2017-07-09T22:03:48.585Z,7.33
2017-07-09T22:06:16.825Z,7.00
2017-07-09T22:08:44.305Z,7.60
2017-07-09T22:11:12.566Z,7.37
2017-07-09T22:13:40.046Z,9.37
2017-07-09T22:16:08.306Z,8.10
2017-07-09T22:18:36.570Z,7.63
2017-07-09T22:21:04.045Z,8.40
2017-07-09T22:23:32.573Z,9.50
2017-07-09T22:26:00.065Z,8.27
2017-07-09T22:28:27.537Z,8.10
2017-07-09T22:30:55.777Z,6.97
2017-07-09T22:33:23.270Z,8.47
2017-07-09T22:35:51.513Z,7.20
2017-07-09T22:38:19.197Z,6.80
2017-07-09T22:40:46.689Z,7.13
2017-07-09T22:43:14.165Z,7.40
2017-07-09T22:45:41.641Z,7.87
2017-07-09T22:48:09.145Z,7.40
2017-07-09T22:50:37.384Z,7.40
2017-07-09T22:53:04.857Z,6.10
2017-07-09T22:55:32.425Z,6.33
2017-07-09T22:58:00.661Z,6.00
2017-07-09T23:00:28.128Z,8.20
2017-07-09T23:02:55.624Z,6.87
2017-07-09T23:05:23.865Z,5.23
2017-07-09T23:07:51.601Z,6.20
2017-07-09T23:10:19.093Z,5.47
2017-07-09T23:12:46.562Z,5.60
2017-07-09T23:15:14.816Z,5.60
2017-07-09T23:17:42.710Z,6.50
2017-07-09T23:20:10.949Z,7.27
2017-07-09T23:22:38.420Z,9.40
2017-07-09T23:25:05.919Z,8.10
2017-07-09T23:27:33.401Z,9.73
2017-07-09T23:30:00.871Z,8.10
2017-07-09T23:32:28.366Z,10.00
2017-07-09T23:34:56.646Z,9.10
2017-07-09T23:37:24.886Z,8.13
2017-07-09T23:39:52.383Z,8.57
2017-07-09T23:42:20.621Z,8.10
2017-07-09T23:44:48.150Z,8.80
2017-07-09T23:47:15.671Z,10.13
2017-07-09T23:49:43.245Z,7.37
2017-07-09T23:52:10.721Z,9.73
2017-07-09T23:54:38.213Z,8.40
2017-07-09T23:57:05.902Z,11.13
2017-07-09T23:59:34.146Z,7.40
